Boston, MA (02101)

4:14 PM EDT on October 31, 2014 (GMT -0400)
South Boston | Change Station
CLOSE
Current Station
Personal Weather Station
Location: Boston, MA
Elevation: 33 ft
Nearby Weather Stations

Elev 33 ft 42.34 °N, 71.06 °W | Updated 8 minutes ago

Overcast
Overcast
50.9 °F
Feels Like 50.9 °F
N
9.0
Wind Variable Wind from ESE
Gusts 14.0 mph

Today
High -- | Low -- °F
--% Chance of Precip.
Yesterday
High -- | Low -- °F
Precip. -- in
7:16 AM 5:38 PM
First Quarter, 58% visible
Pressure 30.00 in
Visibility 10.0 miles
Clouds Few 3400 ft
Mostly Cloudy 5000 ft
Overcast 25000 ft
Dew Point 39 °F
Humidity 64%
Rainfall 0.00 in
Snow Depth Not available.
UV 0 out of 12
Pollen .10 out of 12
Air Quality Not available.
Flu Activity Not available.
METAR KBOS 311954Z 06010KT 10SM FEW034 BKN050 OVC250 10/03 A3000 RMK AO2 SLP157 T01000033

More Conditions Fewer Conditions

Pressure 30.00 in
Visibility 10.0 miles
Clouds Few 3400 ft
Mostly Cloudy 5000 ft
Overcast 25000 ft
Dew Point 39 °F
Humidity 64%
Rainfall 0.00 in
Snow Depth Not available.
UV 0 out of 12
Pollen .10 out of 12
Air Quality Not available.
Flu Activity Not available.
METAR KBOS 311954Z 06010KT 10SM FEW034 BKN050 OVC250 10/03 A3000 RMK AO2 SLP157 T01000033

More Conditions Fewer Conditions

10-Day Weather Forecast

Almanac

Astronomy

Oct. 31, 2014 Rise Set
Actual Time
Civil Twilight
Nautical Twilight
Astronomical Twilight
Moon
Length of Visible Light
Length of Day
Tomorrow will be .
, % of the Moon is Illuminated

Today's Extremes

State Highs State Lows

Community

WunderPhotos

Upload Photos

1,766,717 photos uploaded!

WunderBlogs® & News

Nearby

Air Quality

  Air Quality AQ Index Pollutant
Not available.

Snow Depth

Station Depth Elevation

Earthquake Activity

City Distance Mag. Time & Date
Minimum magnitude displayed is 2.5.

Coastal Water Temperatures

Place Temperature

Nearby Weather Stations